createdAt,value
2022-08-01T00:01:24.288Z,78.47
2022-08-01T00:03:51.907Z,78.44
2022-08-01T00:06:19.911Z,78.79
2022-08-01T00:08:50.048Z,79.19
2022-08-01T00:11:17.877Z,79.35
2022-08-01T00:13:45.510Z,79.22
2022-08-01T00:16:13.550Z,79.42
2022-08-01T00:18:41.160Z,79.67
2022-08-01T00:21:08.882Z,79.59
2022-08-01T00:23:37.863Z,80.00
2022-08-01T00:26:05.484Z,80.19
2022-08-01T00:28:35.712Z,80.07
2022-08-01T00:31:03.326Z,80.38
2022-08-01T00:33:30.909Z,80.33
2022-08-01T00:35:58.553Z,80.66
2022-08-01T00:38:26.094Z,80.68
2022-08-01T00:40:54.458Z,80.97
2022-08-01T00:43:23.365Z,81.00
2022-08-01T00:45:51.053Z,80.97
2022-08-01T00:48:18.871Z,80.88
2022-08-01T00:50:49.173Z,81.18
2022-08-01T00:53:18.865Z,81.56
2022-08-01T00:55:47.155Z,81.39
2022-08-01T00:58:14.858Z,81.41
2022-08-01T01:00:52.138Z,81.29
2022-08-01T01:03:23.867Z,81.28
2022-08-01T01:06:13.205Z,81.31
2022-08-01T01:08:48.562Z,81.52
2022-08-01T01:11:23.744Z,81.67
2022-08-01T01:13:59.307Z,81.74
2022-08-01T01:16:27.770Z,82.07
2022-08-01T01:18:58.156Z,82.06
2022-08-01T01:22:03.186Z,82.02
2022-08-01T01:24:43.801Z,83.05
2022-08-01T01:27:38.327Z,82.78
2022-08-01T01:30:08.090Z,82.97
2022-08-01T01:32:42.010Z,82.89
2022-08-01T01:35:30.724Z,82.73
2022-08-01T01:38:10.867Z,82.64
2022-08-01T01:40:40.201Z,82.62
2022-08-01T01:43:11.680Z,82.74
2022-08-01T01:45:40.834Z,82.52
2022-08-01T01:48:09.758Z,82.68
2022-08-01T01:50:38.375Z,83.11
2022-08-01T01:53:07.874Z,83.26
2022-08-01T01:55:49.126Z,83.21
2022-08-01T01:58:18.188Z,83.36
2022-08-01T02:00:50.521Z,83.33
2022-08-01T02:03:20.735Z,83.27
2022-08-01T02:05:49.572Z,83.06
2022-08-01T02:08:19.314Z,82.58
2022-08-01T02:11:09.081Z,82.36
2022-08-01T02:13:39.434Z,82.14
2022-08-01T02:16:07.826Z,81.89
2022-08-01T02:18:35.405Z,80.76
2022-08-01T02:21:10.290Z,80.50
2022-08-01T02:23:39.106Z,80.38
2022-08-01T02:26:11.899Z,79.88
2022-08-01T02:29:14.490Z,79.74
2022-08-01T02:31:45.997Z,79.43
2022-08-01T02:34:17.177Z,79.57
2022-08-01T02:36:47.837Z,79.61
2022-08-01T02:39:18.093Z,79.77
2022-08-01T02:41:52.109Z,80.02
2022-08-01T02:44:29.023Z,80.35
2022-08-01T02:47:04.125Z,80.68
2022-08-01T02:49:35.440Z,80.66
2022-08-01T02:52:10.314Z,80.78
2022-08-01T02:54:39.331Z,80.87
2022-08-01T02:57:09.935Z,81.00
2022-08-01T02:59:45.886Z,80.84
2022-08-01T03:02:16.661Z,81.22
2022-08-01T03:04:48.027Z,81.10
2022-08-01T03:07:19.129Z,81.49
2022-08-01T03:09:48.973Z,81.63
2022-08-01T03:12:20.847Z,82.03
2022-08-01T03:14:53.809Z,82.09
2022-08-01T03:17:25.958Z,82.44
2022-08-01T03:19:57.981Z,82.43
2022-08-01T03:22:28.860Z,82.40
2022-08-01T03:24:59.634Z,82.59
2022-08-01T03:27:27.516Z,82.69
2022-08-01T03:29:58.287Z,82.80
2022-08-01T03:32:30.351Z,82.78
2022-08-01T03:34:58.525Z,82.79
2022-08-01T03:37:26.262Z,82.93
2022-08-01T03:40:11.363Z,83.15
2022-08-01T03:42:47.473Z,83.15
2022-08-01T03:45:28.366Z,83.19
2022-08-01T03:48:10.939Z,83.20
2022-08-01T03:50:43.435Z,83.00
2022-08-01T03:53:13.198Z,83.03
2022-08-01T03:55:43.142Z,82.91
2022-08-01T03:58:12.467Z,82.65
2022-08-01T04:00:41.609Z,82.04
2022-08-01T04:03:14.709Z,82.28
2022-08-01T04:05:45.868Z,82.13
2022-08-01T04:08:13.483Z,82.18
2022-08-01T04:10:41.215Z,81.87
2022-08-01T04:13:08.842Z,81.49
2022-08-01T04:15:36.767Z,81.56
2022-08-01T04:18:04.624Z,81.48
2022-08-01T04:20:32.254Z,81.33
2022-08-01T04:22:59.816Z,80.64
2022-08-01T04:25:31.816Z,80.62
2022-08-01T04:28:04.946Z,80.48
2022-08-01T04:30:36.099Z,80.37
2022-08-01T04:33:07.602Z,80.21
2022-08-01T04:36:02.777Z,79.80
2022-08-01T04:38:30.787Z,79.75
2022-08-01T04:41:09.090Z,79.38
2022-08-01T04:43:38.467Z,79.05
2022-08-01T04:46:08.655Z,78.80
2022-08-01T04:48:40.926Z,78.62
2022-08-01T04:51:19.100Z,78.44
2022-08-01T04:53:49.490Z,78.05
2022-08-01T04:56:17.207Z,77.23
2022-08-01T04:58:45.786Z,76.49
2022-08-01T05:01:14.340Z,75.36
2022-08-01T05:03:41.955Z,73.20
2022-08-01T05:06:09.594Z,71.41
2022-08-01T05:08:37.939Z,69.99
2022-08-01T05:11:06.265Z,68.99
2022-08-01T05:13:33.845Z,68.20
2022-08-01T05:16:04.529Z,67.82
2022-08-01T05:18:34.254Z,67.40
2022-08-01T05:21:02.963Z,65.44
2022-08-01T05:23:42.148Z,63.39
2022-08-01T05:26:15.057Z,61.37
2022-08-01T05:28:43.978Z,53.87
2022-08-01T05:31:11.949Z,56.81
2022-08-01T05:33:39.683Z,54.87
2022-08-01T05:36:07.563Z,53.78
2022-08-01T05:38:35.120Z,51.78
2022-08-01T05:41:02.799Z,49.55
2022-08-01T05:43:30.421Z,45.57
2022-08-01T05:45:59.291Z,46.64
2022-08-01T05:48:26.849Z,44.46
2022-08-01T05:50:58.630Z,44.42
2022-08-01T05:53:26.656Z,43.99
2022-08-01T05:55:54.319Z,47.71
2022-08-01T05:58:21.893Z,47.63
2022-08-01T06:00:49.715Z,48.57
2022-08-01T06:03:17.336Z,49.79
2022-08-01T06:05:44.904Z,49.49
2022-08-01T06:08:12.763Z,49.75
2022-08-01T06:10:42.718Z,49.97
2022-08-01T06:13:10.425Z,49.74
2022-08-01T06:15:38.012Z,49.30
2022-08-01T06:18:06.430Z,49.66
2022-08-01T06:20:34.105Z,48.88
2022-08-01T06:23:11.310Z,47.73
2022-08-01T06:25:49.564Z,47.50
2022-08-01T06:28:17.156Z,46.94
2022-08-01T06:30:44.718Z,46.14
2022-08-01T06:33:15.670Z,45.28
2022-08-01T06:35:43.259Z,44.08
2022-08-01T06:38:10.844Z,43.30
2022-08-01T06:40:39.305Z,42.73
2022-08-01T06:43:06.925Z,42.37
2022-08-01T06:45:34.476Z,41.67
2022-08-01T06:48:01.998Z,41.03
2022-08-01T06:50:29.591Z,40.84
2022-08-01T06:52:57.243Z,40.58
2022-08-01T06:55:27.233Z,40.50
2022-08-01T06:57:56.458Z,39.32
2022-08-01T07:00:25.618Z,39.21
2022-08-01T07:02:54.430Z,37.83
2022-08-01T07:05:24.242Z,37.77
2022-08-01T07:07:54.472Z,36.98
2022-08-01T07:10:22.159Z,36.68
2022-08-01T07:12:52.400Z,36.89
2022-08-01T07:15:27.290Z,36.08
2022-08-01T07:18:02.424Z,36.06
2022-08-01T07:20:32.043Z,35.65
2022-08-01T07:23:03.877Z,35.72
2022-08-01T07:25:31.439Z,35.19
2022-08-01T07:27:59.040Z,34.93
2022-08-01T07:30:27.178Z,34.46
2022-08-01T07:32:54.755Z,34.30
2022-08-01T07:35:22.431Z,34.27
2022-08-01T07:37:50.000Z,33.76
2022-08-01T07:40:19.881Z,33.31
2022-08-01T07:42:48.901Z,32.15
2022-08-01T07:45:16.820Z,31.41
2022-08-01T07:47:44.682Z,31.06
2022-08-01T07:50:13.606Z,30.60
2022-08-01T07:52:42.593Z,30.12
2022-08-01T07:55:11.751Z,29.91
2022-08-01T07:57:46.618Z,29.49
2022-08-01T08:00:14.736Z,28.96
2022-08-01T08:02:42.467Z,28.50
2022-08-01T08:05:10.336Z,28.98
2022-08-01T08:07:39.631Z,29.11
2022-08-01T08:10:08.059Z,29.50
2022-08-01T08:12:38.480Z,29.00
2022-08-01T08:15:10.012Z,30.17
2022-08-01T08:17:37.694Z,30.40
2022-08-01T08:20:09.813Z,30.27
2022-08-01T08:22:37.968Z,30.47
2022-08-01T08:25:07.733Z,30.99
2022-08-01T08:27:38.174Z,31.60
2022-08-01T08:30:08.745Z,31.72
2022-08-01T08:32:37.458Z,31.87
2022-08-01T08:35:05.847Z,32.23
2022-08-01T08:37:42.782Z,32.64
2022-08-01T08:40:17.938Z,33.30
2022-08-01T08:42:47.476Z,33.45
2022-08-01T08:45:15.289Z,33.58
2022-08-01T08:47:44.411Z,33.71
2022-08-01T08:50:12.647Z,33.49
2022-08-01T08:52:41.104Z,33.66
2022-08-01T08:55:10.700Z,33.74
2022-08-01T08:57:41.898Z,33.91
2022-08-01T09:00:10.673Z,34.08
2022-08-01T09:02:38.310Z,34.03
2022-08-01T09:05:06.490Z,34.01
2022-08-01T09:07:34.087Z,33.97
2022-08-01T09:10:01.789Z,33.86
2022-08-01T09:12:32.049Z,33.62
2022-08-01T09:15:00.102Z,32.91
2022-08-01T09:17:27.843Z,32.34
2022-08-01T09:19:59.064Z,31.50
2022-08-01T09:22:27.358Z,31.09
2022-08-01T09:25:13.094Z,31.09
2022-08-01T09:27:44.138Z,31.03
2022-08-01T09:30:23.817Z,31.42
2022-08-01T09:33:06.178Z,32.04
2022-08-01T09:35:42.999Z,32.17
2022-08-01T09:38:16.870Z,32.24
2022-08-01T09:40:53.286Z,32.49
2022-08-01T09:43:22.514Z,32.85
2022-08-01T09:45:52.944Z,32.84
2022-08-01T09:48:28.521Z,32.96
2022-08-01T09:51:03.838Z,33.19
2022-08-01T09:53:51.083Z,32.89
2022-08-01T09:56:20.015Z,32.11
2022-08-01T09:59:00.356Z,31.65
2022-08-01T10:01:49.765Z,31.10
2022-08-01T10:04:17.499Z,31.04
2022-08-01T10:06:50.859Z,30.69
2022-08-01T10:09:39.796Z,30.92
2022-08-01T10:12:16.253Z,30.69
2022-08-01T10:14:46.793Z,30.40
2022-08-01T10:17:20.130Z,30.35
2022-08-01T10:19:50.562Z,30.29
2022-08-01T10:22:20.880Z,30.21
2022-08-01T10:24:50.202Z,30.27
2022-08-01T10:27:24.336Z,29.60
2022-08-01T10:30:19.592Z,29.85
2022-08-01T10:32:50.819Z,29.36
2022-08-01T10:35:24.080Z,29.12
2022-08-01T10:38:13.451Z,28.10
2022-08-01T10:40:43.955Z,26.91
2022-08-01T10:43:12.578Z,25.91
2022-08-01T10:45:44.241Z,26.29
2022-08-01T10:48:20.576Z,26.21
2022-08-01T10:50:51.611Z,26.51
2022-08-01T10:53:24.157Z,26.65
2022-08-01T10:56:01.491Z,26.29
2022-08-01T10:58:42.546Z,27.26
2022-08-01T11:01:19.594Z,27.08
2022-08-01T11:04:15.946Z,26.69
2022-08-01T11:07:10.200Z,26.42
2022-08-01T11:10:15.547Z,26.81
2022-08-01T11:12:45.310Z,27.06
2022-08-01T11:15:12.817Z,27.86
2022-08-01T11:17:49.617Z,27.37
2022-08-01T11:20:34.663Z,27.39
2022-08-01T11:23:11.726Z,28.51
2022-08-01T11:26:03.155Z,28.99
2022-08-01T11:28:36.917Z,29.88
2022-08-01T11:31:13.883Z,30.27
2022-08-01T11:33:41.698Z,30.10
2022-08-01T11:36:12.667Z,30.61
2022-08-01T11:38:42.540Z,30.73
2022-08-01T11:41:23.562Z,30.35
2022-08-01T11:44:14.450Z,29.45
2022-08-01T11:47:11.609Z,29.23
2022-08-01T11:49:49.272Z,30.58
2022-08-01T11:52:30.969Z,31.40
2022-08-01T11:55:04.810Z,32.00
2022-08-01T11:57:38.902Z,32.39
2022-08-01T12:00:20.721Z,31.61
2022-08-01T12:02:58.953Z,30.04
2022-08-01T12:05:28.760Z,29.33
2022-08-01T12:07:59.599Z,27.93
2022-08-01T12:10:33.247Z,27.10
2022-08-01T12:13:07.094Z,26.86
2022-08-01T12:15:42.501Z,27.72
2022-08-01T12:18:12.415Z,28.92
2022-08-01T12:20:56.487Z,29.62
2022-08-01T12:23:33.377Z,29.50
2022-08-01T12:26:01.934Z,29.62
2022-08-01T12:28:32.267Z,29.01
2022-08-01T12:31:04.978Z,28.24
2022-08-01T12:33:35.068Z,27.87
2022-08-01T12:36:07.739Z,27.60
2022-08-01T12:38:44.714Z,27.23
2022-08-01T12:41:17.743Z,27.69
2022-08-01T12:43:46.800Z,28.06
2022-08-01T12:46:27.083Z,28.30
2022-08-01T12:48:54.772Z,28.77
2022-08-01T12:51:22.664Z,28.30
2022-08-01T12:53:50.276Z,28.44
2022-08-01T12:56:18.724Z,28.92
2022-08-01T12:58:46.379Z,29.34
2022-08-01T13:01:14.377Z,29.24
2022-08-01T13:03:59.997Z,29.38
2022-08-01T13:06:31.426Z,28.87
2022-08-01T13:09:13.020Z,28.66
2022-08-01T13:11:53.977Z,28.43
2022-08-01T13:14:30.057Z,28.53
2022-08-01T13:16:57.761Z,29.21
2022-08-01T13:19:44.512Z,29.55
2022-08-01T13:22:12.179Z,29.90
2022-08-01T13:24:39.861Z,30.22
2022-08-01T13:27:07.607Z,30.22
2022-08-01T13:29:38.758Z,30.59
2022-08-01T13:32:29.850Z,30.81
2022-08-01T13:35:10.746Z,30.60
2022-08-01T13:37:39.563Z,30.81
2022-08-01T13:40:09.159Z,30.78
2022-08-01T13:42:37.379Z,31.19
2022-08-01T13:45:14.592Z,31.42
2022-08-01T13:48:11.915Z,31.41
2022-08-01T13:50:33.964Z,31.85
2022-08-01T13:53:01.647Z,32.28
2022-08-01T13:55:34.713Z,32.66
2022-08-01T13:58:05.030Z,32.80
2022-08-01T14:00:32.826Z,32.93
2022-08-01T14:03:00.390Z,33.00
2022-08-01T14:05:28.157Z,33.20
2022-08-01T14:07:56.494Z,33.38
2022-08-01T14:10:26.792Z,33.53
2022-08-01T14:12:56.846Z,33.57
2022-08-01T14:15:37.311Z,33.60
2022-08-01T14:18:06.958Z,33.52
2022-08-01T14:20:35.941Z,33.52
2022-08-01T14:23:03.710Z,33.55
2022-08-01T14:26:03.014Z,33.82
2022-08-01T14:28:24.683Z,33.90
2022-08-01T14:30:52.248Z,33.74
2022-08-01T14:33:20.004Z,33.54
2022-08-01T14:36:06.167Z,33.49
2022-08-01T14:38:37.879Z,33.49
2022-08-01T14:41:05.467Z,33.51
2022-08-01T14:43:34.179Z,33.46
2022-08-01T14:46:04.468Z,33.55
2022-08-01T14:48:35.411Z,33.68
2022-08-01T14:51:05.100Z,33.73
2022-08-01T14:53:35.755Z,33.97
2022-08-01T14:56:07.708Z,34.38
2022-08-01T14:58:35.463Z,34.53
2022-08-01T15:01:06.873Z,34.69
2022-08-01T15:03:34.806Z,35.17
2022-08-01T15:06:03.332Z,35.08
2022-08-01T15:08:33.378Z,35.33
2022-08-01T15:11:02.054Z,35.53
2022-08-01T15:13:29.670Z,35.72
2022-08-01T15:15:59.828Z,35.89
2022-08-01T15:18:29.503Z,36.14
2022-08-01T15:20:58.289Z,36.27
2022-08-01T15:23:29.867Z,36.52
2022-08-01T15:25:57.460Z,36.81
2022-08-01T15:28:25.646Z,36.76
2022-08-01T15:30:53.193Z,36.89
2022-08-01T15:33:22.569Z,36.89
2022-08-01T15:35:50.222Z,36.83
2022-08-01T15:38:22.661Z,36.72
2022-08-01T15:40:50.293Z,36.63
2022-08-01T15:43:18.139Z,36.80
2022-08-01T15:45:48.044Z,36.67
2022-08-01T15:48:18.061Z,36.52
2022-08-01T15:50:45.889Z,36.59
2022-08-01T15:53:13.472Z,36.79
2022-08-01T15:55:41.441Z,36.75
2022-08-01T15:58:11.618Z,36.94
2022-08-01T16:00:40.259Z,37.07
2022-08-01T16:03:10.215Z,37.18
2022-08-01T16:05:44.340Z,37.29
2022-08-01T16:08:15.435Z,37.42
2022-08-01T16:10:43.672Z,37.63
2022-08-01T16:13:13.542Z,37.67
2022-08-01T16:15:41.758Z,37.71
2022-08-01T16:18:12.974Z,37.80
2022-08-01T16:20:45.489Z,37.89
2022-08-01T16:23:16.872Z,37.96
2022-08-01T16:25:45.270Z,38.19
2022-08-01T16:28:14.087Z,37.99
2022-08-01T16:30:48.596Z,38.18
2022-08-01T16:33:38.818Z,38.24
2022-08-01T16:36:16.660Z,38.26
2022-08-01T16:38:45.643Z,38.19
2022-08-01T16:41:20.078Z,38.24
2022-08-01T16:43:54.329Z,38.33
2022-08-01T16:46:25.110Z,38.44
2022-08-01T16:48:55.432Z,38.79
2022-08-01T16:51:23.105Z,38.98
2022-08-01T16:53:50.924Z,39.05
2022-08-01T16:56:18.638Z,39.24
2022-08-01T16:58:46.695Z,39.50
2022-08-01T17:02:01.031Z,39.61
2022-08-01T17:04:09.297Z,39.76
2022-08-01T17:06:39.233Z,39.96
2022-08-01T17:09:06.928Z,40.15
2022-08-01T17:11:34.516Z,40.37
2022-08-01T17:14:04.534Z,40.61
2022-08-01T17:16:32.385Z,40.70
2022-08-01T17:18:59.968Z,41.05
2022-08-01T17:21:30.670Z,41.24
2022-08-01T17:23:58.360Z,41.47
2022-08-01T17:26:26.552Z,41.86
2022-08-01T17:28:54.127Z,42.24
2022-08-01T17:31:21.875Z,42.72
2022-08-01T17:33:54.544Z,42.89
2022-08-01T17:36:22.782Z,43.14
2022-08-01T17:38:50.453Z,43.32
2022-08-01T17:41:20.028Z,43.52
2022-08-01T17:43:48.097Z,43.72
2022-08-01T17:46:15.811Z,43.88
2022-08-01T17:48:44.407Z,44.18
2022-08-01T17:51:12.214Z,44.28
2022-08-01T17:53:53.155Z,44.59
2022-08-01T17:56:25.551Z,44.79
2022-08-01T17:58:53.293Z,45.04
2022-08-01T18:01:21.692Z,45.39
2022-08-01T18:03:54.405Z,45.56
2022-08-01T18:06:23.180Z,45.87
2022-08-01T18:08:55.329Z,45.94
2022-08-01T18:11:27.331Z,46.13
2022-08-01T18:13:59.486Z,46.28
2022-08-01T18:16:27.858Z,46.44
2022-08-01T18:18:56.066Z,46.43
2022-08-01T18:21:23.803Z,46.62
2022-08-01T18:23:53.433Z,46.76
2022-08-01T18:26:22.692Z,46.93
2022-08-01T18:28:50.348Z,47.00
2022-08-01T18:31:20.359Z,47.01
2022-08-01T18:33:48.453Z,47.24
2022-08-01T18:36:28.328Z,47.32
2022-08-01T18:39:04.439Z,47.45
2022-08-01T18:41:33.381Z,47.59
2022-08-01T18:44:05.314Z,47.79
2022-08-01T18:46:38.668Z,47.90
2022-08-01T18:49:12.009Z,48.03
2022-08-01T18:51:45.096Z,48.24
2022-08-01T18:54:13.691Z,48.24
2022-08-01T18:56:42.454Z,48.34
2022-08-01T18:59:10.682Z,48.40
2022-08-01T19:01:39.692Z,48.71
2022-08-01T19:04:08.075Z,48.97
2022-08-01T19:06:38.813Z,49.10
2022-08-01T19:09:07.966Z,49.46
2022-08-01T19:11:39.796Z,49.24
2022-08-01T19:14:09.946Z,49.43
2022-08-01T19:19:58.781Z,49.73
2022-08-01T19:22:45.711Z,49.59
2022-08-01T19:25:55.605Z,49.25
2022-08-01T19:28:58.773Z,48.95
2022-08-01T19:32:07.152Z,48.93
2022-08-01T19:35:11.822Z,49.12
2022-08-01T19:40:49.316Z,49.47
2022-08-01T19:53:19.780Z,50.95
2022-08-01T19:55:59.656Z,51.73
2022-08-01T19:58:28.927Z,51.63
2022-08-01T20:00:56.650Z,51.95
2022-08-01T20:03:24.498Z,52.28
2022-08-01T20:05:52.650Z,52.44
2022-08-01T20:08:23.323Z,52.58
2022-08-01T20:10:51.889Z,52.91
2022-08-01T20:13:20.304Z,53.17
2022-08-01T20:15:48.354Z,53.58
2022-08-01T20:18:18.444Z,54.29
2022-08-01T20:20:55.686Z,54.54
2022-08-01T20:23:27.202Z,55.40
2022-08-01T20:25:59.443Z,55.56
2022-08-01T20:28:30.219Z,55.54
2022-08-01T20:31:05.325Z,55.17
2022-08-01T20:33:35.591Z,54.92
2022-08-01T20:36:05.113Z,54.87
2022-08-01T20:38:42.488Z,55.10
2022-08-01T20:41:13.372Z,55.29
2022-08-01T20:43:41.210Z,54.89
2022-08-01T20:46:08.761Z,55.00
2022-08-01T20:48:39.806Z,54.71
2022-08-01T20:51:17.198Z,54.52
2022-08-01T20:53:49.092Z,54.42
2022-08-01T20:56:23.358Z,54.06
2022-08-01T20:59:06.460Z,53.90
2022-08-01T21:01:45.342Z,53.73
2022-08-01T21:04:31.842Z,53.44
2022-08-01T21:07:27.357Z,53.36
2022-08-01T21:10:16.365Z,53.45
2022-08-01T21:13:00.505Z,53.34
2022-08-01T21:16:12.542Z,53.43
2022-08-01T21:18:40.961Z,54.02
2022-08-01T21:21:17.455Z,53.68
2022-08-01T21:23:57.597Z,54.00
2022-08-01T21:26:25.817Z,54.25
2022-08-01T21:28:56.519Z,53.81
2022-08-01T21:31:26.280Z,53.79
2022-08-01T21:34:08.224Z,54.22
2022-08-01T21:36:37.006Z,54.48
2022-08-01T21:39:07.022Z,54.62
2022-08-01T21:42:05.054Z,54.88
2022-08-01T21:44:29.737Z,55.07
2022-08-01T21:47:01.677Z,55.42
2022-08-01T21:49:29.524Z,55.60
2022-08-01T21:52:21.854Z,55.80
2022-08-01T21:54:55.007Z,56.08
2022-08-01T21:57:32.108Z,56.71
2022-08-01T22:00:25.122Z,56.63
2022-08-01T22:03:14.977Z,57.12
2022-08-01T22:05:51.159Z,57.49
2022-08-01T22:08:57.642Z,57.34
2022-08-01T22:11:29.714Z,58.44
2022-08-01T22:14:03.035Z,58.29
2022-08-01T22:16:34.700Z,58.70
2022-08-01T22:19:05.648Z,58.45
2022-08-01T22:21:34.109Z,58.90
2022-08-01T22:24:03.619Z,59.05
2022-08-01T22:26:33.228Z,59.34
2022-08-01T22:29:03.651Z,59.16
2022-08-01T22:31:38.060Z,59.28
2022-08-01T22:34:05.874Z,59.34
2022-08-01T22:36:33.449Z,59.53
2022-08-01T22:39:01.032Z,59.70
2022-08-01T22:42:01.410Z,60.10
2022-08-01T22:44:30.349Z,60.59
2022-08-01T22:47:21.744Z,61.09
2022-08-01T22:50:06.529Z,61.83
2022-08-01T22:52:44.671Z,61.89
2022-08-01T22:55:12.875Z,63.04
2022-08-01T22:57:59.296Z,63.66
2022-08-01T23:00:32.630Z,64.15
2022-08-01T23:03:07.762Z,64.24
2022-08-01T23:05:42.333Z,64.17
2022-08-01T23:08:21.966Z,64.42
2022-08-01T23:10:49.694Z,64.80
2022-08-01T23:13:20.963Z,65.00
2022-08-01T23:15:52.110Z,65.03
2022-08-01T23:18:22.193Z,64.96
2022-08-01T23:20:52.700Z,65.26
2022-08-01T23:23:31.148Z,65.34
2022-08-01T23:26:00.683Z,65.21
2022-08-01T23:28:29.706Z,65.16
2022-08-01T23:30:58.621Z,65.53
2022-08-01T23:33:28.695Z,65.81
2022-08-01T23:35:56.484Z,65.96
2022-08-01T23:38:24.099Z,65.78
2022-08-01T23:40:54.065Z,65.96
2022-08-01T23:43:21.694Z,65.97
2022-08-01T23:46:04.744Z,66.27
2022-08-01T23:48:34.269Z,66.31
2022-08-01T23:51:04.581Z,65.92
2022-08-01T23:53:33.666Z,65.71
2022-08-01T23:56:06.588Z,65.84
2022-08-01T23:58:36.603Z,65.40
